sensor_id;sensor_type;location;lat;lon;timestamp;P1;durP1;ratioP1;P2;durP2;ratioP2
22883;SDS011;13386;24.786;110.488;2022-07-29T00:01:54;15.93;;;6.20;;
22883;SDS011;13386;24.786;110.488;2022-07-29T00:04:27;18.83;;;7.20;;
22883;SDS011;13386;24.786;110.488;2022-07-29T00:06:58;21.88;;;9.88;;
22883;SDS011;13386;24.786;110.488;2022-07-29T00:09:28;17.75;;;7.88;;
22883;SDS011;13386;24.786;110.488;2022-07-29T00:12:00;18.90;;;5.97;;
22883;SDS011;13386;24.786;110.488;2022-07-29T00:14:31;14.50;;;6.35;;
22883;SDS011;13386;24.786;110.488;2022-07-29T00:17:01;19.83;;;6.28;;
22883;SDS011;13386;24.786;110.488;2022-07-29T00:19:34;14.95;;;6.32;;
22883;SDS011;13386;24.786;110.488;2022-07-29T00:22:05;13.43;;;5.75;;
22883;SDS011;13386;24.786;110.488;2022-07-29T00:24:35;13.00;;;6.38;;
22883;SDS011;13386;24.786;110.488;2022-07-29T00:27:06;18.92;;;6.65;;
22883;SDS011;13386;24.786;110.488;2022-07-29T00:29:37;19.67;;;6.22;;
22883;SDS011;13386;24.786;110.488;2022-07-29T00:32:08;17.70;;;6.13;;
22883;SDS011;13386;24.786;110.488;2022-07-29T00:34:40;13.70;;;6.00;;
22883;SDS011;13386;24.786;110.488;2022-07-29T00:37:27;14.95;;;6.05;;
22883;SDS011;13386;24.786;110.488;2022-07-29T00:39:58;15.95;;;6.40;;
22883;SDS011;13386;24.786;110.488;2022-07-29T00:42:29;16.15;;;6.32;;
22883;SDS011;13386;24.786;110.488;2022-07-29T00:45:00;15.98;;;6.82;;
22883;SDS011;13386;24.786;110.488;2022-07-29T00:47:30;11.82;;;6.22;;
22883;SDS011;13386;24.786;110.488;2022-07-29T00:50:03;15.77;;;6.30;;
22883;SDS011;13386;24.786;110.488;2022-07-29T00:52:35;13.93;;;6.82;;
22883;SDS011;13386;24.786;110.488;2022-07-29T00:55:07;16.70;;;6.80;;
22883;SDS011;13386;24.786;110.488;2022-07-29T00:57:38;15.52;;;6.68;;
22883;SDS011;13386;24.786;110.488;2022-07-29T01:00:10;16.65;;;6.63;;
22883;SDS011;13386;24.786;110.488;2022-07-29T01:02:42;18.83;;;7.78;;
22883;SDS011;13386;24.786;110.488;2022-07-29T01:05:14;17.60;;;6.63;;
22883;SDS011;13386;24.786;110.488;2022-07-29T01:07:45;14.52;;;6.35;;
22883;SDS011;13386;24.786;110.488;2022-07-29T01:10:16;15.88;;;6.80;;
22883;SDS011;13386;24.786;110.488;2022-07-29T01:12:49;18.25;;;6.82;;
22883;SDS011;13386;24.786;110.488;2022-07-29T01:15:20;15.48;;;7.50;;
22883;SDS011;13386;24.786;110.488;2022-07-29T01:17:53;16.60;;;6.50;;
22883;SDS011;13386;24.786;110.488;2022-07-29T01:20:29;17.30;;;6.85;;
22883;SDS011;13386;24.786;110.488;2022-07-29T01:23:07;15.10;;;6.95;;
22883;SDS011;13386;24.786;110.488;2022-07-29T01:31:20;19.23;;;7.40;;
22883;SDS011;13386;24.786;110.488;2022-07-29T01:36:23;14.40;;;6.80;;
22883;SDS011;13386;24.786;110.488;2022-07-29T01:38:58;18.13;;;7.00;;
22883;SDS011;13386;24.786;110.488;2022-07-29T01:41:33;22.20;;;7.13;;
22883;SDS011;13386;24.786;110.488;2022-07-29T01:44:11;18.35;;;7.15;;
22883;SDS011;13386;24.786;110.488;2022-07-29T01:46:46;16.15;;;7.28;;
22883;SDS011;13386;24.786;110.488;2022-07-29T01:49:21;17.38;;;7.20;;
22883;SDS011;13386;24.786;110.488;2022-07-29T01:51:54;15.15;;;6.70;;
22883;SDS011;13386;24.786;110.488;2022-07-29T01:54:26;15.45;;;7.07;;
22883;SDS011;13386;24.786;110.488;2022-07-29T01:56:59;21.15;;;6.95;;
22883;SDS011;13386;24.786;110.488;2022-07-29T01:59:48;13.52;;;7.05;;
22883;SDS011;13386;24.786;110.488;2022-07-29T02:02:22;17.00;;;6.93;;
22883;SDS011;13386;24.786;110.488;2022-07-29T02:04:54;17.08;;;7.30;;
22883;SDS011;13386;24.786;110.488;2022-07-29T02:07:27;18.23;;;6.70;;
22883;SDS011;13386;24.786;110.488;2022-07-29T02:09:58;17.75;;;6.85;;
22883;SDS011;13386;24.786;110.488;2022-07-29T02:12:32;13.18;;;6.28;;
22883;SDS011;13386;24.786;110.488;2022-07-29T02:15:03;18.67;;;6.85;;
22883;SDS011;13386;24.786;110.488;2022-07-29T02:17:39;17.27;;;6.50;;
22883;SDS011;13386;24.786;110.488;2022-07-29T02:20:11;11.88;;;6.40;;
22883;SDS011;13386;24.786;110.488;2022-07-29T02:22:42;12.82;;;6.25;;
22883;SDS011;13386;24.786;110.488;2022-07-29T02:25:14;13.05;;;5.93;;
22883;SDS011;13386;24.786;110.488;2022-07-29T02:27:45;13.77;;;5.78;;
22883;SDS011;13386;24.786;110.488;2022-07-29T02:30:22;10.82;;;5.57;;
22883;SDS011;13386;24.786;110.488;2022-07-29T02:32:57;11.55;;;5.05;;
22883;SDS011;13386;24.786;110.488;2022-07-29T02:35:29;14.02;;;5.10;;
22883;SDS011;13386;24.786;110.488;2022-07-29T02:38:00;9.63;;;5.10;;
22883;SDS011;13386;24.786;110.488;2022-07-29T02:40:49;14.52;;;4.90;;
22883;SDS011;13386;24.786;110.488;2022-07-29T02:43:21;13.05;;;5.38;;
22883;SDS011;13386;24.786;110.488;2022-07-29T02:45:53;11.75;;;5.25;;
22883;SDS011;13386;24.786;110.488;2022-07-29T02:48:27;15.93;;;5.13;;
22883;SDS011;13386;24.786;110.488;2022-07-29T02:51:05;11.85;;;5.25;;
22883;SDS011;13386;24.786;110.488;2022-07-29T02:53:37;13.48;;;5.18;;
22883;SDS011;13386;24.786;110.488;2022-07-29T02:56:10;12.73;;;5.05;;
22883;SDS011;13386;24.786;110.488;2022-07-29T02:58:47;14.30;;;4.70;;
22883;SDS011;13386;24.786;110.488;2022-07-29T03:01:22;9.80;;;4.72;;
22883;SDS011;13386;24.786;110.488;2022-07-29T03:06:29;9.98;;;4.70;;
22883;SDS011;13386;24.786;110.488;2022-07-29T03:09:02;9.70;;;4.63;;
22883;SDS011;13386;24.786;110.488;2022-07-29T03:11:32;9.93;;;4.60;;
22883;SDS011;13386;24.786;110.488;2022-07-29T03:14:04;10.60;;;4.63;;
22883;SDS011;13386;24.786;110.488;2022-07-29T03:16:36;11.23;;;4.20;;
22883;SDS011;13386;24.786;110.488;2022-07-29T03:19:07;8.45;;;4.63;;
22883;SDS011;13386;24.786;110.488;2022-07-29T03:21:40;10.18;;;4.15;;
22883;SDS011;13386;24.786;110.488;2022-07-29T03:24:23;10.52;;;4.50;;
22883;SDS011;13386;24.786;110.488;2022-07-29T03:26:55;11.02;;;4.88;;
22883;SDS011;13386;24.786;110.488;2022-07-29T03:29:26;9.13;;;4.05;;
22883;SDS011;13386;24.786;110.488;2022-07-29T03:32:02;9.40;;;4.38;;
22883;SDS011;13386;24.786;110.488;2022-07-29T03:34:39;8.90;;;4.10;;
22883;SDS011;13386;24.786;110.488;2022-07-29T03:37:13;10.50;;;4.45;;
22883;SDS011;13386;24.786;110.488;2022-07-29T03:39:43;10.90;;;4.15;;
22883;SDS011;13386;24.786;110.488;2022-07-29T03:42:18;11.50;;;4.47;;
22883;SDS011;13386;24.786;110.488;2022-07-29T03:44:50;14.68;;;4.60;;
22883;SDS011;13386;24.786;110.488;2022-07-29T03:47:23;10.82;;;4.35;;
22883;SDS011;13386;24.786;110.488;2022-07-29T03:49:57;9.88;;;4.47;;
22883;SDS011;13386;24.786;110.488;2022-07-29T03:52:32;12.35;;;4.50;;
22883;SDS011;13386;24.786;110.488;2022-07-29T03:55:03;11.02;;;4.40;;
22883;SDS011;13386;24.786;110.488;2022-07-29T03:57:34;10.55;;;4.70;;
22883;SDS011;13386;24.786;110.488;2022-07-29T04:00:06;12.48;;;4.80;;
22883;SDS011;13386;24.786;110.488;2022-07-29T04:02:40;9.98;;;4.88;;
22883;SDS011;13386;24.786;110.488;2022-07-29T04:05:15;14.90;;;5.13;;
22883;SDS011;13386;24.786;110.488;2022-07-29T04:07:48;12.60;;;4.70;;
22883;SDS011;13386;24.786;110.488;2022-07-29T04:10:23;12.52;;;4.72;;
22883;SDS011;13386;24.786;110.488;2022-07-29T04:12:53;7.93;;;4.38;;
22883;SDS011;13386;24.786;110.488;2022-07-29T04:15:25;10.68;;;4.82;;
22883;SDS011;13386;24.786;110.488;2022-07-29T04:17:57;8.63;;;4.20;;
22883;SDS011;13386;24.786;110.488;2022-07-29T04:20:29;12.23;;;4.40;;
22883;SDS011;13386;24.786;110.488;2022-07-29T04:23:07;8.00;;;4.07;;
22883;SDS011;13386;24.786;110.488;2022-07-29T04:25:38;8.88;;;3.88;;
22883;SDS011;13386;24.786;110.488;2022-07-29T04:28:10;11.40;;;4.18;;
22883;SDS011;13386;24.786;110.488;2022-07-29T04:30:41;13.05;;;4.30;;
22883;SDS011;13386;24.786;110.488;2022-07-29T04:33:12;9.13;;;3.67;;
22883;SDS011;13386;24.786;110.488;2022-07-29T04:35:43;7.47;;;4.18;;
22883;SDS011;13386;24.786;110.488;2022-07-29T04:38:17;7.22;;;3.85;;
22883;SDS011;13386;24.786;110.488;2022-07-29T04:40:48;11.82;;;4.07;;
22883;SDS011;13386;24.786;110.488;2022-07-29T04:43:22;9.57;;;4.03;;
22883;SDS011;13386;24.786;110.488;2022-07-29T04:46:01;10.98;;;3.83;;
22883;SDS011;13386;24.786;110.488;2022-07-29T04:48:34;10.38;;;4.50;;
22883;SDS011;13386;24.786;110.488;2022-07-29T04:51:07;12.65;;;4.38;;
22883;SDS011;13386;24.786;110.488;2022-07-29T04:53:40;10.90;;;4.20;;
22883;SDS011;13386;24.786;110.488;2022-07-29T04:56:11;6.82;;;3.70;;
22883;SDS011;13386;24.786;110.488;2022-07-29T04:58:42;8.98;;;3.90;;
22883;SDS011;13386;24.786;110.488;2022-07-29T05:01:12;12.10;;;3.80;;
22883;SDS011;13386;24.786;110.488;2022-07-29T05:03:45;9.95;;;4.13;;
22883;SDS011;13386;24.786;110.488;2022-07-29T05:06:16;7.35;;;3.60;;
22883;SDS011;13386;24.786;110.488;2022-07-29T05:08:52;9.50;;;3.78;;
22883;SDS011;13386;24.786;110.488;2022-07-29T05:11:27;8.15;;;4.35;;
22883;SDS011;13386;24.786;110.488;2022-07-29T05:13:57;8.38;;;4.32;;
22883;SDS011;13386;24.786;110.488;2022-07-29T05:16:30;7.60;;;4.20;;
22883;SDS011;13386;24.786;110.488;2022-07-29T05:19:06;11.63;;;3.80;;
22883;SDS011;13386;24.786;110.488;2022-07-29T05:21:37;6.80;;;3.65;;
22883;SDS011;13386;24.786;110.488;2022-07-29T05:24:13;7.53;;;4.00;;
22883;SDS011;13386;24.786;110.488;2022-07-29T05:26:45;7.25;;;3.78;;
22883;SDS011;13386;24.786;110.488;2022-07-29T05:29:15;6.97;;;4.00;;
22883;SDS011;13386;24.786;110.488;2022-07-29T05:31:52;8.60;;;3.95;;
22883;SDS011;13386;24.786;110.488;2022-07-29T05:34:23;9.82;;;3.92;;
22883;SDS011;13386;24.786;110.488;2022-07-29T05:37:11;10.02;;;3.90;;
22883;SDS011;13386;24.786;110.488;2022-07-29T05:40:02;9.45;;;3.97;;
22883;SDS011;13386;24.786;110.488;2022-07-29T05:42:35;6.22;;;3.42;;
22883;SDS011;13386;24.786;110.488;2022-07-29T05:45:06;10.80;;;4.15;;
22883;SDS011;13386;24.786;110.488;2022-07-29T05:47:38;8.32;;;4.22;;
22883;SDS011;13386;24.786;110.488;2022-07-29T05:50:10;10.25;;;4.10;;
22883;SDS011;13386;24.786;110.488;2022-07-29T05:52:42;6.93;;;4.18;;
22883;SDS011;13386;24.786;110.488;2022-07-29T05:55:16;8.50;;;4.32;;
22883;SDS011;13386;24.786;110.488;2022-07-29T05:57:47;6.38;;;3.60;;
22883;SDS011;13386;24.786;110.488;2022-07-29T06:00:19;8.15;;;4.50;;
22883;SDS011;13386;24.786;110.488;2022-07-29T06:02:53;10.82;;;4.10;;
22883;SDS011;13386;24.786;110.488;2022-07-29T06:05:30;9.20;;;4.30;;
22883;SDS011;13386;24.786;110.488;2022-07-29T06:08:01;7.43;;;3.72;;
22883;SDS011;13386;24.786;110.488;2022-07-29T06:10:34;8.45;;;4.00;;
22883;SDS011;13386;24.786;110.488;2022-07-29T06:13:05;8.05;;;4.05;;
22883;SDS011;13386;24.786;110.488;2022-07-29T06:15:39;8.90;;;4.07;;
22883;SDS011;13386;24.786;110.488;2022-07-29T06:18:12;8.20;;;3.78;;
22883;SDS011;13386;24.786;110.488;2022-07-29T06:20:47;8.95;;;4.03;;
22883;SDS011;13386;24.786;110.488;2022-07-29T06:23:18;7.70;;;4.05;;
22883;SDS011;13386;24.786;110.488;2022-07-29T06:25:51;10.30;;;3.83;;
22883;SDS011;13386;24.786;110.488;2022-07-29T06:28:25;11.98;;;3.97;;
22883;SDS011;13386;24.786;110.488;2022-07-29T06:30:57;16.60;;;5.25;;
22883;SDS011;13386;24.786;110.488;2022-07-29T06:33:31;8.32;;;4.20;;
22883;SDS011;13386;24.786;110.488;2022-07-29T06:36:03;8.93;;;4.43;;
22883;SDS011;13386;24.786;110.488;2022-07-29T06:38:35;9.57;;;4.00;;
22883;SDS011;13386;24.786;110.488;2022-07-29T06:41:11;11.82;;;4.32;;
22883;SDS011;13386;24.786;110.488;2022-07-29T06:43:44;11.90;;;4.25;;
22883;SDS011;13386;24.786;110.488;2022-07-29T06:46:15;8.23;;;4.57;;
22883;SDS011;13386;24.786;110.488;2022-07-29T06:48:46;11.27;;;4.57;;
22883;SDS011;13386;24.786;110.488;2022-07-29T06:51:19;9.88;;;3.97;;
22883;SDS011;13386;24.786;110.488;2022-07-29T06:53:50;10.75;;;4.35;;
22883;SDS011;13386;24.786;110.488;2022-07-29T06:56:26;9.45;;;4.03;;
22883;SDS011;13386;24.786;110.488;2022-07-29T06:58:57;11.65;;;4.60;;
22883;SDS011;13386;24.786;110.488;2022-07-29T07:01:31;10.50;;;4.80;;
22883;SDS011;13386;24.786;110.488;2022-07-29T07:04:04;10.95;;;4.50;;
22883;SDS011;13386;24.786;110.488;2022-07-29T07:06:37;11.60;;;4.57;;
22883;SDS011;13386;24.786;110.488;2022-07-29T07:09:08;14.15;;;4.72;;
22883;SDS011;13386;24.786;110.488;2022-07-29T07:11:40;8.95;;;4.38;;
22883;SDS011;13386;24.786;110.488;2022-07-29T07:14:18;7.30;;;4.20;;
22883;SDS011;13386;24.786;110.488;2022-07-29T07:16:58;11.30;;;4.43;;
22883;SDS011;13386;24.786;110.488;2022-07-29T07:19:31;8.98;;;4.50;;
22883;SDS011;13386;24.786;110.488;2022-07-29T07:22:01;7.85;;;4.05;;
22883;SDS011;13386;24.786;110.488;2022-07-29T07:24:34;6.93;;;3.88;;
22883;SDS011;13386;24.786;110.488;2022-07-29T07:27:06;9.65;;;4.10;;
22883;SDS011;13386;24.786;110.488;2022-07-29T07:29:38;6.87;;;3.90;;
22883;SDS011;13386;24.786;110.488;2022-07-29T07:32:10;10.63;;;4.25;;
22883;SDS011;13386;24.786;110.488;2022-07-29T07:34:43;8.45;;;4.13;;
22883;SDS011;13386;24.786;110.488;2022-07-29T07:37:14;12.70;;;4.65;;
22883;SDS011;13386;24.786;110.488;2022-07-29T07:39:47;7.07;;;3.85;;
22883;SDS011;13386;24.786;110.488;2022-07-29T07:42:23;5.78;;;2.97;;
22883;SDS011;13386;24.786;110.488;2022-07-29T07:44:55;5.47;;;2.90;;
22883;SDS011;13386;24.786;110.488;2022-07-29T07:47:26;7.80;;;2.70;;
22883;SDS011;13386;24.786;110.488;2022-07-29T07:50:00;7.18;;;2.75;;
22883;SDS011;13386;24.786;110.488;2022-07-29T07:52:32;8.50;;;3.30;;
22883;SDS011;13386;24.786;110.488;2022-07-29T07:55:03;5.80;;;3.25;;
22883;SDS011;13386;24.786;110.488;2022-07-29T07:57:40;6.50;;;3.17;;
22883;SDS011;13386;24.786;110.488;2022-07-29T08:00:11;9.80;;;3.20;;
22883;SDS011;13386;24.786;110.488;2022-07-29T08:02:42;7.45;;;3.20;;
22883;SDS011;13386;24.786;110.488;2022-07-29T08:05:14;7.15;;;3.00;;
22883;SDS011;13386;24.786;110.488;2022-07-29T08:07:46;8.88;;;3.65;;
22883;SDS011;13386;24.786;110.488;2022-07-29T08:10:20;7.05;;;3.80;;
22883;SDS011;13386;24.786;110.488;2022-07-29T08:13:05;6.07;;;3.53;;
22883;SDS011;13386;24.786;110.488;2022-07-29T08:15:39;7.47;;;3.70;;
22883;SDS011;13386;24.786;110.488;2022-07-29T08:18:12;7.88;;;3.90;;
22883;SDS011;13386;24.786;110.488;2022-07-29T08:20:44;7.85;;;4.10;;
22883;SDS011;13386;24.786;110.488;2022-07-29T08:23:15;7.60;;;4.20;;
22883;SDS011;13386;24.786;110.488;2022-07-29T08:25:47;10.98;;;4.10;;
22883;SDS011;13386;24.786;110.488;2022-07-29T08:28:23;8.45;;;3.70;;
22883;SDS011;13386;24.786;110.488;2022-07-29T08:30:53;6.53;;;3.83;;
22883;SDS011;13386;24.786;110.488;2022-07-29T08:33:25;9.98;;;4.13;;
22883;SDS011;13386;24.786;110.488;2022-07-29T08:36:20;10.48;;;4.22;;
22883;SDS011;13386;24.786;110.488;2022-07-29T08:41:53;10.02;;;4.18;;
22883;SDS011;13386;24.786;110.488;2022-07-29T08:44:35;12.35;;;4.90;;
22883;SDS011;13386;24.786;110.488;2022-07-29T08:47:08;9.90;;;4.50;;
22883;SDS011;13386;24.786;110.488;2022-07-29T08:49:39;10.63;;;4.43;;
22883;SDS011;13386;24.786;110.488;2022-07-29T08:52:10;10.95;;;4.40;;
22883;SDS011;13386;24.786;110.488;2022-07-29T08:54:43;10.35;;;4.30;;
22883;SDS011;13386;24.786;110.488;2022-07-29T08:57:14;10.27;;;4.25;;
22883;SDS011;13386;24.786;110.488;2022-07-29T08:59:46;7.38;;;4.35;;
22883;SDS011;13386;24.786;110.488;2022-07-29T09:02:26;9.65;;;4.93;;
22883;SDS011;13386;24.786;110.488;2022-07-29T09:08:03;8.93;;;5.10;;
22883;SDS011;13386;24.786;110.488;2022-07-29T09:10:35;8.82;;;4.90;;
22883;SDS011;13386;24.786;110.488;2022-07-29T09:13:05;10.57;;;4.90;;
22883;SDS011;13386;24.786;110.488;2022-07-29T09:15:40;10.30;;;5.00;;
22883;SDS011;13386;24.786;110.488;2022-07-29T09:18:27;10.65;;;4.65;;
22883;SDS011;13386;24.786;110.488;2022-07-29T09:21:05;11.15;;;4.90;;
22883;SDS011;13386;24.786;110.488;2022-07-29T09:24:01;7.78;;;4.28;;
22883;SDS011;13386;24.786;110.488;2022-07-29T09:26:33;9.13;;;4.80;;
22883;SDS011;13386;24.786;110.488;2022-07-29T09:29:08;9.50;;;4.70;;
22883;SDS011;13386;24.786;110.488;2022-07-29T09:31:47;10.65;;;4.95;;
22883;SDS011;13386;24.786;110.488;2022-07-29T09:34:22;8.48;;;4.60;;
22883;SDS011;13386;24.786;110.488;2022-07-29T09:36:53;12.05;;;4.70;;
22883;SDS011;13386;24.786;110.488;2022-07-29T09:39:28;11.20;;;5.18;;
22883;SDS011;13386;24.786;110.488;2022-07-29T09:41:59;15.45;;;6.38;;
22883;SDS011;13386;24.786;110.488;2022-07-29T09:47:17;12.88;;;5.68;;
22883;SDS011;13386;24.786;110.488;2022-07-29T09:49:52;13.32;;;6.25;;
22883;SDS011;13386;24.786;110.488;2022-07-29T09:52:25;16.92;;;7.05;;
22883;SDS011;13386;24.786;110.488;2022-07-29T09:55:04;13.95;;;6.45;;
22883;SDS011;13386;24.786;110.488;2022-07-29T09:57:36;14.38;;;6.65;;
22883;SDS011;13386;24.786;110.488;2022-07-29T10:00:08;13.40;;;6.07;;
22883;SDS011;13386;24.786;110.488;2022-07-29T10:02:41;15.77;;;6.80;;
22883;SDS011;13386;24.786;110.488;2022-07-29T10:05:17;13.57;;;6.55;;
22883;SDS011;13386;24.786;110.488;2022-07-29T10:07:51;14.45;;;6.25;;
22883;SDS011;13386;24.786;110.488;2022-07-29T10:10:23;17.42;;;7.00;;
22883;SDS011;13386;24.786;110.488;2022-07-29T10:12:54;15.23;;;7.10;;
22883;SDS011;13386;24.786;110.488;2022-07-29T10:15:30;13.15;;;6.47;;
22883;SDS011;13386;24.786;110.488;2022-07-29T10:18:06;14.75;;;7.03;;
22883;SDS011;13386;24.786;110.488;2022-07-29T10:20:40;16.35;;;6.90;;
22883;SDS011;13386;24.786;110.488;2022-07-29T10:23:11;18.50;;;7.18;;
22883;SDS011;13386;24.786;110.488;2022-07-29T10:25:42;14.23;;;7.30;;
22883;SDS011;13386;24.786;110.488;2022-07-29T10:28:14;17.30;;;7.40;;
22883;SDS011;13386;24.786;110.488;2022-07-29T10:30:45;17.15;;;7.45;;
22883;SDS011;13386;24.786;110.488;2022-07-29T10:33:21;15.65;;;7.30;;
22883;SDS011;13386;24.786;110.488;2022-07-29T10:36:07;14.45;;;6.82;;
22883;SDS011;13386;24.786;110.488;2022-07-29T10:38:43;16.27;;;7.45;;
22883;SDS011;13386;24.786;110.488;2022-07-29T10:41:21;20.77;;;7.55;;
22883;SDS011;13386;24.786;110.488;2022-07-29T10:43:59;14.18;;;7.15;;
22883;SDS011;13386;24.786;110.488;2022-07-29T10:46:34;17.40;;;7.65;;
22883;SDS011;13386;24.786;110.488;2022-07-29T10:54:40;17.23;;;7.95;;
22883;SDS011;13386;24.786;110.488;2022-07-29T10:57:18;22.40;;;8.05;;
22883;SDS011;13386;24.786;110.488;2022-07-29T11:02:44;14.57;;;6.82;;
22883;SDS011;13386;24.786;110.488;2022-07-29T11:05:19;12.88;;;6.97;;
22883;SDS011;13386;24.786;110.488;2022-07-29T11:10:42;12.85;;;6.45;;
22883;SDS011;13386;24.786;110.488;2022-07-29T11:13:13;19.80;;;7.10;;
22883;SDS011;13386;24.786;110.488;2022-07-29T11:16:04;14.38;;;6.90;;
22883;SDS011;13386;24.786;110.488;2022-07-29T11:18:35;16.73;;;6.68;;
22883;SDS011;13386;24.786;110.488;2022-07-29T11:21:06;19.83;;;6.90;;
22883;SDS011;13386;24.786;110.488;2022-07-29T11:24:11;16.75;;;6.60;;
22883;SDS011;13386;24.786;110.488;2022-07-29T11:26:44;16.92;;;7.15;;
22883;SDS011;13386;24.786;110.488;2022-07-29T11:29:16;21.00;;;7.70;;
22883;SDS011;13386;24.786;110.488;2022-07-29T11:31:50;16.03;;;6.70;;
22883;SDS011;13386;24.786;110.488;2022-07-29T11:39:45;16.75;;;7.32;;
22883;SDS011;13386;24.786;110.488;2022-07-29T11:45:08;18.40;;;7.50;;
22883;SDS011;13386;24.786;110.488;2022-07-29T11:47:41;20.02;;;8.13;;
22883;SDS011;13386;24.786;110.488;2022-07-29T11:50:12;16.90;;;8.18;;
22883;SDS011;13386;24.786;110.488;2022-07-29T11:52:43;18.40;;;8.10;;
22883;SDS011;13386;24.786;110.488;2022-07-29T11:55:15;23.45;;;8.68;;
22883;SDS011;13386;24.786;110.488;2022-07-29T11:57:46;22.20;;;8.57;;
22883;SDS011;13386;24.786;110.488;2022-07-29T12:00:23;19.90;;;7.90;;
22883;SDS011;13386;24.786;110.488;2022-07-29T12:02:55;16.00;;;7.95;;
22883;SDS011;13386;24.786;110.488;2022-07-29T12:05:33;19.88;;;8.15;;
22883;SDS011;13386;24.786;110.488;2022-07-29T12:08:11;20.92;;;8.40;;
22883;SDS011;13386;24.786;110.488;2022-07-29T12:10:43;20.83;;;8.45;;
22883;SDS011;13386;24.786;110.488;2022-07-29T12:13:19;20.25;;;8.48;;
22883;SDS011;13386;24.786;110.488;2022-07-29T12:15:56;20.77;;;8.38;;
22883;SDS011;13386;24.786;110.488;2022-07-29T12:18:34;19.90;;;8.02;;
22883;SDS011;13386;24.786;110.488;2022-07-29T12:21:05;21.30;;;8.98;;
22883;SDS011;13386;24.786;110.488;2022-07-29T12:23:36;20.52;;;8.57;;
22883;SDS011;13386;24.786;110.488;2022-07-29T12:26:07;18.85;;;7.78;;
22883;SDS011;13386;24.786;110.488;2022-07-29T12:28:40;20.30;;;8.95;;
22883;SDS011;13386;24.786;110.488;2022-07-29T12:31:15;22.80;;;9.07;;
22883;SDS011;13386;24.786;110.488;2022-07-29T12:33:51;19.17;;;8.65;;
22883;SDS011;13386;24.786;110.488;2022-07-29T12:36:22;20.73;;;8.90;;
22883;SDS011;13386;24.786;110.488;2022-07-29T12:38:53;25.75;;;8.82;;
22883;SDS011;13386;24.786;110.488;2022-07-29T12:41:24;18.80;;;8.80;;
22883;SDS011;13386;24.786;110.488;2022-07-29T12:43:56;17.85;;;8.10;;
22883;SDS011;13386;24.786;110.488;2022-07-29T12:46:35;22.42;;;8.63;;
22883;SDS011;13386;24.786;110.488;2022-07-29T12:49:09;18.15;;;8.50;;
22883;SDS011;13386;24.786;110.488;2022-07-29T12:51:44;19.40;;;8.30;;
22883;SDS011;13386;24.786;110.488;2022-07-29T12:54:15;19.25;;;9.05;;
22883;SDS011;13386;24.786;110.488;2022-07-29T12:56:47;20.48;;;8.68;;
22883;SDS011;13386;24.786;110.488;2022-07-29T12:59:28;22.52;;;8.68;;
22883;SDS011;13386;24.786;110.488;2022-07-29T13:02:03;18.80;;;8.45;;
22883;SDS011;13386;24.786;110.488;2022-07-29T13:04:41;17.63;;;8.45;;
22883;SDS011;13386;24.786;110.488;2022-07-29T13:07:14;29.20;;;10.43;;
22883;SDS011;13386;24.786;110.488;2022-07-29T13:09:57;27.88;;;10.38;;
22883;SDS011;13386;24.786;110.488;2022-07-29T13:12:39;30.92;;;12.02;;
22883;SDS011;13386;24.786;110.488;2022-07-29T13:15:13;32.13;;;13.75;;
22883;SDS011;13386;24.786;110.488;2022-07-29T13:17:49;35.13;;;13.80;;
22883;SDS011;13386;24.786;110.488;2022-07-29T13:20:25;30.13;;;12.18;;
22883;SDS011;13386;24.786;110.488;2022-07-29T13:22:56;27.10;;;11.50;;
22883;SDS011;13386;24.786;110.488;2022-07-29T13:25:30;25.20;;;10.48;;
22883;SDS011;13386;24.786;110.488;2022-07-29T13:28:11;23.05;;;10.30;;
22883;SDS011;13386;24.786;110.488;2022-07-29T13:30:43;28.15;;;11.02;;
22883;SDS011;13386;24.786;110.488;2022-07-29T13:33:18;22.25;;;9.43;;
22883;SDS011;13386;24.786;110.488;2022-07-29T13:35:52;22.80;;;10.88;;
22883;SDS011;13386;24.786;110.488;2022-07-29T13:38:26;26.05;;;10.20;;
22883;SDS011;13386;24.786;110.488;2022-07-29T13:41:03;21.83;;;9.70;;
22883;SDS011;13386;24.786;110.488;2022-07-29T13:43:35;22.60;;;9.85;;
22883;SDS011;13386;24.786;110.488;2022-07-29T13:46:07;22.83;;;9.82;;
22883;SDS011;13386;24.786;110.488;2022-07-29T13:48:43;26.20;;;10.27;;
22883;SDS011;13386;24.786;110.488;2022-07-29T13:51:16;21.38;;;9.85;;
22883;SDS011;13386;24.786;110.488;2022-07-29T13:53:50;21.23;;;9.75;;
22883;SDS011;13386;24.786;110.488;2022-07-29T13:56:30;23.05;;;9.63;;
22883;SDS011;13386;24.786;110.488;2022-07-29T13:59:01;24.48;;;9.65;;
22883;SDS011;13386;24.786;110.488;2022-07-29T14:01:33;24.38;;;10.23;;
22883;SDS011;13386;24.786;110.488;2022-07-29T14:04:06;24.35;;;10.15;;
22883;SDS011;13386;24.786;110.488;2022-07-29T14:06:41;24.13;;;10.60;;
22883;SDS011;13386;24.786;110.488;2022-07-29T14:09:13;22.88;;;9.93;;
22883;SDS011;13386;24.786;110.488;2022-07-29T14:11:44;28.65;;;10.75;;
22883;SDS011;13386;24.786;110.488;2022-07-29T14:14:21;28.98;;;11.02;;
22883;SDS011;13386;24.786;110.488;2022-07-29T14:16:55;22.52;;;10.68;;
22883;SDS011;13386;24.786;110.488;2022-07-29T14:19:29;27.38;;;11.52;;
22883;SDS011;13386;24.786;110.488;2022-07-29T14:22:02;29.40;;;11.88;;
22883;SDS011;13386;24.786;110.488;2022-07-29T14:24:34;25.13;;;11.45;;
22883;SDS011;13386;24.786;110.488;2022-07-29T14:27:05;28.92;;;11.98;;
22883;SDS011;13386;24.786;110.488;2022-07-29T14:29:42;31.85;;;12.40;;
22883;SDS011;13386;24.786;110.488;2022-07-29T14:32:13;29.27;;;12.02;;
22883;SDS011;13386;24.786;110.488;2022-07-29T14:34:46;29.67;;;11.43;;
22883;SDS011;13386;24.786;110.488;2022-07-29T14:37:16;32.42;;;13.02;;
22883;SDS011;13386;24.786;110.488;2022-07-29T14:39:47;25.55;;;11.88;;
22883;SDS011;13386;24.786;110.488;2022-07-29T14:42:18;26.73;;;11.07;;
22883;SDS011;13386;24.786;110.488;2022-07-29T14:44:49;26.88;;;10.88;;
22883;SDS011;13386;24.786;110.488;2022-07-29T14:47:22;28.77;;;11.18;;
22883;SDS011;13386;24.786;110.488;2022-07-29T14:49:56;26.95;;;11.40;;
22883;SDS011;13386;24.786;110.488;2022-07-29T14:52:27;25.52;;;10.70;;
22883;SDS011;13386;24.786;110.488;2022-07-29T14:55:01;28.58;;;10.88;;
22883;SDS011;13386;24.786;110.488;2022-07-29T14:57:38;25.58;;;11.32;;
22883;SDS011;13386;24.786;110.488;2022-07-29T15:00:10;24.75;;;11.05;;
22883;SDS011;13386;24.786;110.488;2022-07-29T15:02:43;23.00;;;10.40;;
22883;SDS011;13386;24.786;110.488;2022-07-29T15:05:18;26.58;;;10.68;;
22883;SDS011;13386;24.786;110.488;2022-07-29T15:07:50;21.10;;;10.68;;
22883;SDS011;13386;24.786;110.488;2022-07-29T15:10:27;23.95;;;10.70;;
22883;SDS011;13386;24.786;110.488;2022-07-29T15:12:58;26.63;;;10.38;;
22883;SDS011;13386;24.786;110.488;2022-07-29T15:15:30;23.73;;;10.60;;
22883;SDS011;13386;24.786;110.488;2022-07-29T15:18:02;27.08;;;10.93;;
22883;SDS011;13386;24.786;110.488;2022-07-29T15:20:42;24.73;;;10.93;;
22883;SDS011;13386;24.786;110.488;2022-07-29T15:23:13;30.83;;;11.10;;
22883;SDS011;13386;24.786;110.488;2022-07-29T15:25:46;25.30;;;10.60;;
22883;SDS011;13386;24.786;110.488;2022-07-29T15:28:17;25.33;;;10.70;;